Carlsbad, NM

2:36 AM MST on March 03, 2015 (GMT -0700)
Guadalupe Pass | Change Station
CLOSE
Current Station
Airport
Location: Guadalupe Pass,
Elevation: 5453 ft
Nearby Weather Stations
Active Advisory: Special Statement

Elev 5453 ft 31.83 °N, 104.81 °W | Updated 2 days ago

Fog
Fog
41 °F
Feels Like 34 °F
N
11
Wind Variable Wind from SSE
Gusts mph

Today
High -- | Low -- °F
--% Chance of Precip.
Yesterday
High -- | Low -- °F
Precip. -- in
6:22 AM 5:55 PM
Waxing Gibbous, 95% visible
Pressure 30.01 in
Visibility 8.0 miles
Clouds
Windchill 34 °F
Dew Point 36 °F
Humidity 83%
Rainfall 0.00 in
Snow Depth Not available.
UV Not available.
Pollen 6.90 out of 12
Air Quality Not available.
Flu Activity Not available.
METAR KGDP 282151Z AUTO 06004KT 8SM 05/02 A2997 RMK AO2 SLP161 T00500017 $

More Conditions Fewer Conditions

Pressure 30.01 in
Visibility 8.0 miles
Clouds
Windchill 34 °F
Dew Point 36 °F
Humidity 83%
Rainfall 0.00 in
Snow Depth Not available.
UV Not available.
Pollen 6.90 out of 12
Air Quality Not available.
Flu Activity Not available.
METAR KGDP 282151Z AUTO 06004KT 8SM 05/02 A2997 RMK AO2 SLP161 T00500017 $

More Conditions Fewer Conditions

10-Day Weather Forecast

Almanac

Astronomy

Mar. 03, 2015 Rise Set
Actual Time
Civil Twilight
Nautical Twilight
Astronomical Twilight
Moon
Length of Visible Light
Length of Day
Tomorrow will be .
, % of the Moon is Illuminated

Today's Extremes

State Highs State Lows

Community

WunderPhotos

Upload Photos

1,802,075 photos uploaded!

WunderBlogs® & News

Nearby

Air Quality

  Air Quality AQ Index Pollutant
Not available.

Snow Depth

Station Depth Elevation

Earthquake Activity

City Distance Mag. Time & Date
Minimum magnitude displayed is 2.5.

Coastal Water Temperatures

Place Temperature

Nearby Weather Stations

Special Statement
Statement as of 9:26 PM MST on March 02, 2015

... Areas of locally dense fog can be expected tonight...

Areas of locally dense fog tonight will reduce the visibility to
one quarter mile at times. Fog across the north and Central Basin
is expected to expand into the western basin... parts of The Trans
Pecos and southeast New Mexico through the morning.

Drive cautiously and allow extra time to reach your destination. Use
low beam headlights and be especially cautious at intersections.
Be prepared for low visibility for morning travel.